Key Fjord — ZDIJ3 — position and weather

sailwx.info

Track history (hours):
 
Tides and Currents Weather Stations Pressure Air Temp Water Temp Dewpoint Dewpoint Depression Visibility Wind Speed Wind Dir Waves Ship Positions

Key Fjord

Last reported at 2017-Nov-19 23:56 UTC. Time now 2017-Nov-21 04:52 UTC.
Position N 66°14' E 011°44'.

Length 100 m; draft 5.7 m.

Type: Ship (hazmat cat B). MMSI: 236445000.

Date/timePositionNaut miles runAvg speedWind from/ knotsBaromVisibWave heightAir tempDewpointWater temp
2017-Nov-19 23:56N 66°14' E 011°44'512.3
2017-Nov-19 23:30N 66°16' E 011°56'611.6
2017-Nov-19 23:00N 66°17' E 012°10'612.3
2017-Nov-19 22:30N 66°15' E 012°25'611.5
2017-Nov-19 22:00N 66°16' E 012°39'611.9
2017-Nov-19 21:30N 66°20' E 012°50'611.3
2017-Nov-19 21:00N 66°25' E 012°59'612.3
2017-Nov-19 20:30N 66°31' E 012°58'510.3
2017-Nov-19 20:00N 66°35' E 013°04'612.1
2017-Nov-19 19:30N 66°41' E 013°08'611.3
2017-Nov-19 19:01N 66°45' E 013°19'4 8.4
2017-Nov-19 18:30N 66°45' E 013°30'0 0.0
2017-Nov-19 17:58N 66°45' E 013°30'0 0.0
2017-Nov-19 17:28N 66°45' E 013°30'0 0.0
2017-Nov-19 16:58N 66°45' E 013°30'0 0.0
2017-Nov-19 16:28N 66°45' E 013°30'0 0.0
2017-Nov-19 15:49N 66°45' E 013°30'0 0.0
2017-Nov-19 15:28N 66°45' E 013°30'0 0.0
2017-Nov-19 14:58N 66°45' E 013°30'0 0.0
2017-Nov-19 14:28N 66°45' E 013°30'0 0.0
2017-Nov-19 13:58N 66°45' E 013°30'0 0.0
2017-Nov-19 13:28N 66°45' E 013°30'0 0.0
2017-Nov-19 12:58N 66°45' E 013°30'0 0.0
2017-Nov-19 12:28N 66°45' E 013°30'0 0.0
2017-Nov-19 11:58N 66°45' E 013°30'0 0.0
2017-Nov-19 11:28N 66°45' E 013°30'0 0.0
2017-Nov-19 10:58N 66°45' E 013°30'0 0.0
2017-Nov-19 10:28N 66°45' E 013°30'0 0.0
2017-Nov-19 09:58N 66°45' E 013°30'0 0.0
2017-Nov-19 09:28N 66°45' E 013°30'0 0.0
2017-Nov-19 08:58N 66°45' E 013°30'0 0.0
2017-Nov-19 08:30N 66°45' E 013°30'0 0.4
2017-Nov-19 08:00N 66°45' E 013°30'510.4
2017-Nov-19 07:30N 66°45' E 013°17'4 8.9
2017-Nov-19 07:00N 66°49' E 013°16'612.3
2017-Nov-19 06:30N 66°54' E 013°25'510.4
2017-Nov-19 06:00N 66°58' E 013°33'612.5
2017-Nov-19 05:30N 67°01' E 013°47'713.1
2017-Nov-19 05:00N 67°06' E 013°58'510.0
2017-Nov-19 04:30N 67°11' E 013°57'611.3
2017-Nov-19 04:00N 67°14' E 013°45'4 8.2
2017-Nov-19 03:30N 67°14' E 013°34'4 8.7
2017-Nov-19 03:00N 67°15' E 013°23'4 8.5
2017-Nov-19 02:30N 67°19' E 013°24'5 9.1
2017-Nov-19 02:00N 67°23' E 013°30'5 9.2
2017-Nov-19 01:30N 67°27' E 013°37'5 9.8
2017-Nov-19 01:00N 67°31' E 013°44'5 9.7
2017-Nov-19 00:30N 67°35' E 013°51'5 9.4
2017-Nov-19 00:00N 67°39' E 013°58'5 9.3
2017-Nov-18 23:30N 67°43' E 014°04'5 9.5
2017-Nov-18 23:00N 67°46' E 014°12'5 9.4
2017-Nov-18 22:30N 67°50' E 014°19'5 9.1
2017-Nov-18 22:00N 67°54' E 014°27'5 9.1
2017-Nov-18 21:30N 67°57' E 014°34'4 8.8
2017-Nov-18 21:00N 68°00' E 014°43'5 9.1
2017-Nov-18 20:30N 68°03' E 014°53'5 9.3
2017-Nov-18 20:00N 68°05' E 015°04'5 9.3
2017-Nov-18 19:30N 68°08' E 015°14'4 9.1
2017-Nov-18 19:00N 68°10' E 015°24'4 8.2
2017-Nov-18 18:30N 68°12' E 015°34'4 8.2
2017-Nov-18 18:00N 68°15' E 015°42'4 8.4
2017-Nov-18 17:30N 68°18' E 015°49'4 8.2
2017-Nov-18 17:00N 68°21' E 015°57'3 6.9
2017-Nov-18 16:30N 68°24' E 016°01'611.4
2017-Nov-18 16:00N 68°30' E 016°07'612.9
2017-Nov-18 15:30N 68°34' E 016°21'510.3
2017-Nov-18 15:00N 68°36' E 016°33'612.6
2017-Nov-18 14:30N 68°42' E 016°41'713.0
2017-Nov-18 13:59N 68°48' E 016°50'613.0
2017-Nov-18 13:30N 68°53' E 016°59'713.0
2017-Nov-18 12:59N 68°58' E 017°11'713.2
2017-Nov-18 12:30N 69°04' E 017°22'612.8
2017-Nov-18 12:00N 69°07' E 017°36'713.6
2017-Nov-18 11:30N 69°10' E 017°54'4 8.9
2017-Nov-18 11:01N 69°14' E 017°57'612.0
2017-Nov-18 10:30N 69°20' E 018°02'612.2
2017-Nov-18 10:00N 69°26' E 018°07'5 9.3
2017-Nov-18 09:29N 69°30' E 018°14'4 8.9
2017-Nov-18 09:00N 69°31' E 018°25'5 9.4
2017-Nov-18 08:30N 69°33' E 018°38'4 8.8
2017-Nov-18 08:00N 69°34' E 018°50'612.1
2017-Nov-18 07:30N 69°29' E 018°57'713.0
2017-Nov-18 07:00N 69°23' E 019°05'612.7
2017-Nov-18 06:30N 69°20' E 019°21'611.1
2017-Nov-18 06:00N 69°14' E 019°22'0 0.1
2017-Nov-18 05:30N 69°14' E 019°22'0 0.0
2017-Nov-18 05:00N 69°14' E 019°22'0 0.0
2017-Nov-18 04:30N 69°14' E 019°22'0 0.0
2017-Nov-18 04:00N 69°14' E 019°22'0 0.0
2017-Nov-18 03:30N 69°14' E 019°22'0 0.0
2017-Nov-18 03:00N 69°14' E 019°22'0 0.0
2017-Nov-18 02:30N 69°14' E 019°22'0 0.0
2017-Nov-18 02:00N 69°14' E 019°22'0 0.0
2017-Nov-18 01:30N 69°14' E 019°22'0 0.0
2017-Nov-18 01:00N 69°14' E 019°22'0 0.0
2017-Nov-18 00:30N 69°14' E 019°22'0 0.0
2017-Nov-18 00:00N 69°14' E 019°22'0 0.0
2017-Nov-17 23:30N 69°14' E 019°22'0 0.0
2017-Nov-17 23:00N 69°14' E 019°22'0 0.0
2017-Nov-17 22:30N 69°14' E 019°22'0 0.0
2017-Nov-17 22:00N 69°14' E 019°22'0 0.0
2017-Nov-17 21:29N 69°14' E 019°22'0 0.0
2017-Nov-17 21:00N 69°14' E 019°22'0 0.0
2017-Nov-17 20:30N 69°14' E 019°22'0 0.0
2017-Nov-17 20:01N 69°14' E 019°22'0 0.0
2017-Nov-17 19:30N 69°14' E 019°22'0 0.0
2017-Nov-17 19:00N 69°14' E 019°22'0 0.0
2017-Nov-17 18:31N 69°14' E 019°22'0 0.0
2017-Nov-17 18:00N 69°14' E 019°22'0 0.0
2017-Nov-17 17:30N 69°14' E 019°22'0 0.0
2017-Nov-17 17:00N 69°14' E 019°22'0 0.2
2017-Nov-17 16:30N 69°14' E 019°21'2 3.1
2017-Nov-17 16:00N 69°16' E 019°22'2 4.9
2017-Nov-17 15:30N 69°18' E 019°22'4 8.0
2017-Nov-17 15:00N 69°21' E 019°14'611.1
2017-Nov-17 14:30N 69°25' E 019°02'611.8
2017-Nov-17 14:00N 69°30' E 018°56'5 9.3
2017-Nov-17 13:30N 69°34' E 018°48'510.2
2017-Nov-17 13:00N 69°32' E 018°34'612.0
2017-Nov-17 12:31N 69°31' E 018°17'611.1
2017-Nov-17 12:00N 69°32' E 018°02'5 9.9
2017-Nov-17 11:30N 69°36' E 017°53'511.2
2017-Nov-17 11:01N 69°40' E 017°43'611.5
2017-Nov-17 10:30N 69°42' E 017°27'611.6
2017-Nov-17 10:01N 69°44' E 017°12'611.4
2017-Nov-17 09:30N 69°46' E 016°57'611.2
2017-Nov-17 09:00N 69°48' E 016°41'611.5
2017-Nov-17 08:30N 69°51' E 016°26'  
2017-Nov-14 10:08N 58°52' E 004°28'2 9.3
2017-Nov-14 09:53N 58°50' E 004°32'4 9.4
2017-Nov-14 09:30N 58°48' E 004°36'5 9.1
2017-Nov-14 08:59N 58°44' E 004°43'4 9.1
2017-Nov-14 08:30N 58°41' E 004°49'4 9.1
2017-Nov-14 08:00N 58°38' E 004°55'4 8.8
2017-Nov-14 07:31N 58°35' E 005°01'5 9.3
2017-Nov-14 07:00N 58°31' E 005°06'5 9.2
2017-Nov-14 06:30N 58°28' E 005°12'5 9.6
2017-Nov-14 05:59N 58°24' E 005°19'510.2
2017-Nov-14 05:30N 58°21' E 005°27'611.2
2017-Nov-14 05:00N 58°18' E 005°35'612.3
2017-Nov-14 04:30N 58°14' E 005°44'611.9
2017-Nov-14 04:00N 58°10' E 005°52'611.6
2017-Nov-14 03:30N 58°06' E 006°00'611.9
2017-Nov-14 03:00N 58°02' E 006°08'611.7
2017-Nov-14 02:30N 57°58' E 006°17'612.1
2017-Nov-14 02:01N 57°54' E 006°25'611.9
2017-Nov-14 01:29N 57°50' E 006°34'510.8
2017-Nov-14 01:00N 57°48' E 006°44'611.9
2017-Nov-14 00:30N 57°48' E 006°55'612.3
2017-Nov-14 00:00N 57°47' E 007°06'612.5
2017-Nov-13 23:30N 57°47' E 007°18'612.6
2017-Nov-13 23:00N 57°47' E 007°30'612.4
2017-Nov-13 22:30N 57°47' E 007°41'612.3
2017-Nov-13 22:00N 57°47' E 007°53'186 9.3
2017-Nov-13 02:01N 56°05' E 012°37'510.4
2017-Nov-13 01:30N 56°00' E 012°41'510.0
2017-Nov-13 01:00N 55°55' E 012°44'510.1
2017-Nov-13 00:31N 55°50' E 012°44'510.0
2017-Nov-13 00:01N 55°45' E 012°42'510.3
2017-Nov-12 23:30N 55°40' E 012°41'611.0
2017-Nov-12 23:00N 55°35' E 012°42'510.4
2017-Nov-12 22:31N 55°30' E 012°43'611.2
2017-Nov-12 22:00N 55°24' E 012°42'611.7
2017-Nov-12 21:31N 55°18' E 012°42'611.8
2017-Nov-12 21:00N 55°16' E 012°52'611.5
2017-Nov-12 20:30N 55°16' E 013°02'611.6
2017-Nov-12 20:00N 55°16' E 013°12'611.6
2017-Nov-12 19:30N 55°15' E 013°22'611.6
2017-Nov-12 18:59N 55°15' E 013°33'711.6
2017-Nov-12 18:22N 55°14' E 013°45'411.7
2017-Nov-12 17:59N 55°14' E 013°53'611.8
2017-Nov-12 17:27N 55°14' E 014°04'511.8
2017-Nov-12 17:00N 55°14' E 014°13'611.0
2017-Nov-12 16:30N 55°17' E 014°21'712.3
2017-Nov-12 15:57N 55°22' E 014°29'512.3
2017-Nov-12 15:30N 55°27' E 014°35'611.8
2017-Nov-12 15:00N 55°29' E 014°44'611.9
2017-Nov-12 14:30N 55°30' E 014°54'612.0
2017-Nov-12 14:00N 55°31' E 015°05'611.8
2017-Nov-12 13:31N 55°32' E 015°15'611.9
2017-Nov-12 13:01N 55°33' E 015°25'611.8
2017-Nov-12 12:30N 55°34' E 015°36'611.9
2017-Nov-12 12:00N 55°35' E 015°46'611.6
2017-Nov-12 11:31N 55°36' E 015°56'611.2
2017-Nov-12 11:00N 55°38' E 016°06'611.3
2017-Nov-12 10:30N 55°39' E 016°16'611.1
2017-Nov-12 10:00N 55°39' E 016°25'510.8
2017-Nov-12 09:31N 55°40' E 016°35'510.8
2017-Nov-12 09:00N 55°41' E 016°44'  
Track history (hours):
 
Tides and Currents Weather Stations Pressure Air Temp Water Temp Dewpoint Dewpoint Depression Visibility Wind Speed Wind Dir Waves Ship Positions

Key Fjord

Last reported at 2017-Nov-19 23:56 UTC. Time now 2017-Nov-21 04:52 UTC.
Position N 66°14' E 011°44'.

Length 100 m; draft 5.7 m.

Type: Ship (hazmat cat B). MMSI: 236445000.

Date/timePositionNaut miles runAvg speedWind from/ knotsBaromVisibWave heightAir tempDewpointWater temp
2017-Nov-19 23:56N 66°14' E 011°44'512.3
2017-Nov-19 23:30N 66°16' E 011°56'611.6
2017-Nov-19 23:00N 66°17' E 012°10'612.3
2017-Nov-19 22:30N 66°15' E 012°25'611.5
2017-Nov-19 22:00N 66°16' E 012°39'611.9
2017-Nov-19 21:30N 66°20' E 012°50'611.3
2017-Nov-19 21:00N 66°25' E 012°59'612.3
2017-Nov-19 20:30N 66°31' E 012°58'510.3
2017-Nov-19 20:00N 66°35' E 013°04'612.1
2017-Nov-19 19:30N 66°41' E 013°08'611.3
2017-Nov-19 19:01N 66°45' E 013°19'4 8.4
2017-Nov-19 18:30N 66°45' E 013°30'0 0.0
2017-Nov-19 17:58N 66°45' E 013°30'0 0.0
2017-Nov-19 17:28N 66°45' E 013°30'0 0.0
2017-Nov-19 16:58N 66°45' E 013°30'0 0.0
2017-Nov-19 16:28N 66°45' E 013°30'0 0.0
2017-Nov-19 15:49N 66°45' E 013°30'0 0.0
2017-Nov-19 15:28N 66°45' E 013°30'0 0.0
2017-Nov-19 14:58N 66°45' E 013°30'0 0.0
2017-Nov-19 14:28N 66°45' E 013°30'0 0.0
2017-Nov-19 13:58N 66°45' E 013°30'0 0.0
2017-Nov-19 13:28N 66°45' E 013°30'0 0.0
2017-Nov-19 12:58N 66°45' E 013°30'0 0.0
2017-Nov-19 12:28N 66°45' E 013°30'0 0.0
2017-Nov-19 11:58N 66°45' E 013°30'0 0.0
2017-Nov-19 11:28N 66°45' E 013°30'0 0.0
2017-Nov-19 10:58N 66°45' E 013°30'0 0.0
2017-Nov-19 10:28N 66°45' E 013°30'0 0.0
2017-Nov-19 09:58N 66°45' E 013°30'0 0.0
2017-Nov-19 09:28N 66°45' E 013°30'0 0.0
2017-Nov-19 08:58N 66°45' E 013°30'0 0.0
2017-Nov-19 08:30N 66°45' E 013°30'0 0.4
2017-Nov-19 08:00N 66°45' E 013°30'510.4
2017-Nov-19 07:30N 66°45' E 013°17'4 8.9
2017-Nov-19 07:00N 66°49' E 013°16'612.3
2017-Nov-19 06:30N 66°54' E 013°25'510.4
2017-Nov-19 06:00N 66°58' E 013°33'612.5
2017-Nov-19 05:30N 67°01' E 013°47'713.1
2017-Nov-19 05:00N 67°06' E 013°58'510.0
2017-Nov-19 04:30N 67°11' E 013°57'611.3
2017-Nov-19 04:00N 67°14' E 013°45'4 8.2
2017-Nov-19 03:30N 67°14' E 013°34'4 8.7
2017-Nov-19 03:00N 67°15' E 013°23'4 8.5
2017-Nov-19 02:30N 67°19' E 013°24'5 9.1
2017-Nov-19 02:00N 67°23' E 013°30'5 9.2
2017-Nov-19 01:30N 67°27' E 013°37'5 9.8
2017-Nov-19 01:00N 67°31' E 013°44'5 9.7
2017-Nov-19 00:30N 67°35' E 013°51'5 9.4
2017-Nov-19 00:00N 67°39' E 013°58'5 9.3
2017-Nov-18 23:30N 67°43' E 014°04'5 9.5
2017-Nov-18 23:00N 67°46' E 014°12'5 9.4
2017-Nov-18 22:30N 67°50' E 014°19'5 9.1
2017-Nov-18 22:00N 67°54' E 014°27'5 9.1
2017-Nov-18 21:30N 67°57' E 014°34'4 8.8
2017-Nov-18 21:00N 68°00' E 014°43'5 9.1
2017-Nov-18 20:30N 68°03' E 014°53'5 9.3
2017-Nov-18 20:00N 68°05' E 015°04'5 9.3
2017-Nov-18 19:30N 68°08' E 015°14'4 9.1
2017-Nov-18 19:00N 68°10' E 015°24'4 8.2
2017-Nov-18 18:30N 68°12' E 015°34'4 8.2
2017-Nov-18 18:00N 68°15' E 015°42'4 8.4
2017-Nov-18 17:30N 68°18' E 015°49'4 8.2
2017-Nov-18 17:00N 68°21' E 015°57'3 6.9
2017-Nov-18 16:30N 68°24' E 016°01'611.4
2017-Nov-18 16:00N 68°30' E 016°07'612.9
2017-Nov-18 15:30N 68°34' E 016°21'510.3
2017-Nov-18 15:00N 68°36' E 016°33'612.6
2017-Nov-18 14:30N 68°42' E 016°41'713.0
2017-Nov-18 13:59N 68°48' E 016°50'613.0
2017-Nov-18 13:30N 68°53' E 016°59'713.0
2017-Nov-18 12:59N 68°58' E 017°11'713.2
2017-Nov-18 12:30N 69°04' E 017°22'612.8
2017-Nov-18 12:00N 69°07' E 017°36'713.6
2017-Nov-18 11:30N 69°10' E 017°54'4 8.9
2017-Nov-18 11:01N 69°14' E 017°57'612.0
2017-Nov-18 10:30N 69°20' E 018°02'612.2
2017-Nov-18 10:00N 69°26' E 018°07'5 9.3
2017-Nov-18 09:29N 69°30' E 018°14'4 8.9
2017-Nov-18 09:00N 69°31' E 018°25'5 9.4
2017-Nov-18 08:30N 69°33' E 018°38'4 8.8
2017-Nov-18 08:00N 69°34' E 018°50'612.1
2017-Nov-18 07:30N 69°29' E 018°57'713.0
2017-Nov-18 07:00N 69°23' E 019°05'612.7
2017-Nov-18 06:30N 69°20' E 019°21'611.1
2017-Nov-18 06:00N 69°14' E 019°22'0 0.1
2017-Nov-18 05:30N 69°14' E 019°22'0 0.0
2017-Nov-18 05:00N 69°14' E 019°22'0 0.0
2017-Nov-18 04:30N 69°14' E 019°22'0 0.0
2017-Nov-18 04:00N 69°14' E 019°22'0 0.0
2017-Nov-18 03:30N 69°14' E 019°22'0 0.0
2017-Nov-18 03:00N 69°14' E 019°22'0 0.0
2017-Nov-18 02:30N 69°14' E 019°22'0 0.0
2017-Nov-18 02:00N 69°14' E 019°22'0 0.0
2017-Nov-18 01:30N 69°14' E 019°22'0 0.0
2017-Nov-18 01:00N 69°14' E 019°22'0 0.0
2017-Nov-18 00:30N 69°14' E 019°22'0 0.0
2017-Nov-18 00:00N 69°14' E 019°22'0 0.0
2017-Nov-17 23:30N 69°14' E 019°22'0 0.0
2017-Nov-17 23:00N 69°14' E 019°22'0 0.0
2017-Nov-17 22:30N 69°14' E 019°22'0 0.0
2017-Nov-17 22:00N 69°14' E 019°22'0 0.0
2017-Nov-17 21:29N 69°14' E 019°22'0 0.0
2017-Nov-17 21:00N 69°14' E 019°22'0 0.0
2017-Nov-17 20:30N 69°14' E 019°22'0 0.0
2017-Nov-17 20:01N 69°14' E 019°22'0 0.0
2017-Nov-17 19:30N 69°14' E 019°22'0 0.0
2017-Nov-17 19:00N 69°14' E 019°22'0 0.0
2017-Nov-17 18:31N 69°14' E 019°22'0 0.0
2017-Nov-17 18:00N 69°14' E 019°22'0 0.0
2017-Nov-17 17:30N 69°14' E 019°22'0 0.0
2017-Nov-17 17:00N 69°14' E 019°22'0 0.2
2017-Nov-17 16:30N 69°14' E 019°21'2 3.1
2017-Nov-17 16:00N 69°16' E 019°22'2 4.9
2017-Nov-17 15:30N 69°18' E 019°22'4 8.0
2017-Nov-17 15:00N 69°21' E 019°14'611.1
2017-Nov-17 14:30N 69°25' E 019°02'611.8
2017-Nov-17 14:00N 69°30' E 018°56'5 9.3
2017-Nov-17 13:30N 69°34' E 018°48'510.2
2017-Nov-17 13:00N 69°32' E 018°34'612.0
2017-Nov-17 12:31N 69°31' E 018°17'611.1
2017-Nov-17 12:00N 69°32' E 018°02'5 9.9
2017-Nov-17 11:30N 69°36' E 017°53'511.2
2017-Nov-17 11:01N 69°40' E 017°43'611.5
2017-Nov-17 10:30N 69°42' E 017°27'611.6
2017-Nov-17 10:01N 69°44' E 017°12'611.4
2017-Nov-17 09:30N 69°46' E 016°57'611.2
2017-Nov-17 09:00N 69°48' E 016°41'611.5
2017-Nov-17 08:30N 69°51' E 016°26'  
2017-Nov-14 10:08N 58°52' E 004°28'2 9.3
2017-Nov-14 09:53N 58°50' E 004°32'4 9.4
2017-Nov-14 09:30N 58°48' E 004°36'5 9.1
2017-Nov-14 08:59N 58°44' E 004°43'4 9.1
2017-Nov-14 08:30N 58°41' E 004°49'4 9.1
2017-Nov-14 08:00N 58°38' E 004°55'4 8.8
2017-Nov-14 07:31N 58°35' E 005°01'5 9.3
2017-Nov-14 07:00N 58°31' E 005°06'5 9.2
2017-Nov-14 06:30N 58°28' E 005°12'5 9.6
2017-Nov-14 05:59N 58°24' E 005°19'510.2
2017-Nov-14 05:30N 58°21' E 005°27'611.2
2017-Nov-14 05:00N 58°18' E 005°35'612.3
2017-Nov-14 04:30N 58°14' E 005°44'611.9
2017-Nov-14 04:00N 58°10' E 005°52'611.6
2017-Nov-14 03:30N 58°06' E 006°00'611.9
2017-Nov-14 03:00N 58°02' E 006°08'611.7
2017-Nov-14 02:30N 57°58' E 006°17'612.1
2017-Nov-14 02:01N 57°54' E 006°25'611.9
2017-Nov-14 01:29N 57°50' E 006°34'510.8
2017-Nov-14 01:00N 57°48' E 006°44'611.9
2017-Nov-14 00:30N 57°48' E 006°55'612.3
2017-Nov-14 00:00N 57°47' E 007°06'612.5
2017-Nov-13 23:30N 57°47' E 007°18'612.6
2017-Nov-13 23:00N 57°47' E 007°30'612.4
2017-Nov-13 22:30N 57°47' E 007°41'612.3
2017-Nov-13 22:00N 57°47' E 007°53'186 9.3
2017-Nov-13 02:01N 56°05' E 012°37'510.4
2017-Nov-13 01:30N 56°00' E 012°41'510.0
2017-Nov-13 01:00N 55°55' E 012°44'510.1
2017-Nov-13 00:31N 55°50' E 012°44'510.0
2017-Nov-13 00:01N 55°45' E 012°42'510.3
2017-Nov-12 23:30N 55°40' E 012°41'611.0
2017-Nov-12 23:00N 55°35' E 012°42'510.4
2017-Nov-12 22:31N 55°30' E 012°43'611.2
2017-Nov-12 22:00N 55°24' E 012°42'611.7
2017-Nov-12 21:31N 55°18' E 012°42'611.8
2017-Nov-12 21:00N 55°16' E 012°52'611.5
2017-Nov-12 20:30N 55°16' E 013°02'611.6
2017-Nov-12 20:00N 55°16' E 013°12'611.6
2017-Nov-12 19:30N 55°15' E 013°22'611.6
2017-Nov-12 18:59N 55°15' E 013°33'711.6
2017-Nov-12 18:22N 55°14' E 013°45'411.7
2017-Nov-12 17:59N 55°14' E 013°53'611.8
2017-Nov-12 17:27N 55°14' E 014°04'511.8
2017-Nov-12 17:00N 55°14' E 014°13'611.0
2017-Nov-12 16:30N 55°17' E 014°21'712.3
2017-Nov-12 15:57N 55°22' E 014°29'512.3
2017-Nov-12 15:30N 55°27' E 014°35'611.8
2017-Nov-12 15:00N 55°29' E 014°44'611.9
2017-Nov-12 14:30N 55°30' E 014°54'612.0
2017-Nov-12 14:00N 55°31' E 015°05'611.8
2017-Nov-12 13:31N 55°32' E 015°15'611.9
2017-Nov-12 13:01N 55°33' E 015°25'611.8
2017-Nov-12 12:30N 55°34' E 015°36'611.9
2017-Nov-12 12:00N 55°35' E 015°46'611.6
2017-Nov-12 11:31N 55°36' E 015°56'611.2
2017-Nov-12 11:00N 55°38' E 016°06'611.3
2017-Nov-12 10:30N 55°39' E 016°16'611.1
2017-Nov-12 10:00N 55°39' E 016°25'510.8
2017-Nov-12 09:31N 55°40' E 016°35'510.8
2017-Nov-12 09:00N 55°41' E 016°44'  

Dump ship's entire track history